createdAt,value
2022-09-25T00:00:06.824Z,13.50
2022-09-25T00:10:08.027Z,13.50
2022-09-25T00:20:10.145Z,13.50
2022-09-25T00:30:13.163Z,13.50
2022-09-25T00:40:27.747Z,13.50
2022-09-25T00:50:31.861Z,13.40
2022-09-25T01:00:34.254Z,13.40
2022-09-25T01:10:35.742Z,13.50
2022-09-25T01:20:58.327Z,13.50
2022-09-25T01:31:15.033Z,13.40
2022-09-25T01:42:00.290Z,13.40
2022-09-25T01:52:05.568Z,13.40
2022-09-25T02:02:11.885Z,13.30
2022-09-25T02:12:21.464Z,13.40
2022-09-25T02:22:33.020Z,13.40
2022-09-25T02:32:35.485Z,13.40
2022-09-25T02:42:59.093Z,13.30
2022-09-25T02:53:21.804Z,13.30
2022-09-25T03:03:26.149Z,13.30
2022-09-25T03:13:34.223Z,13.30
2022-09-25T03:23:36.066Z,13.30
2022-09-25T03:33:40.563Z,13.30
2022-09-25T03:43:44.224Z,13.30
2022-09-25T03:53:45.823Z,13.30
2022-09-25T04:03:48.948Z,13.30
2022-09-25T04:13:50.562Z,13.30
2022-09-25T04:24:11.987Z,13.30
2022-09-25T04:34:13.925Z,13.30
2022-09-25T04:44:15.485Z,13.30
2022-09-25T04:54:18.084Z,13.30
2022-09-25T05:04:19.527Z,13.30
2022-09-25T05:14:21.167Z,13.30
2022-09-25T05:24:22.925Z,13.30
2022-09-25T05:34:24.443Z,13.40
2022-09-25T05:44:26.620Z,13.40
2022-09-25T05:54:28.586Z,13.30
2022-09-25T06:04:30.066Z,13.40
2022-09-25T06:14:32.122Z,13.30
2022-09-25T06:24:33.769Z,13.40
2022-09-25T06:34:34.962Z,13.40
2022-09-25T06:44:36.527Z,13.40
2022-09-25T06:54:40.575Z,13.50
2022-09-25T07:04:47.266Z,13.50
2022-09-25T07:14:49.188Z,13.50
2022-09-25T07:24:51.410Z,13.60
2022-09-25T07:34:52.970Z,13.60
2022-09-25T07:44:54.729Z,13.60
2022-09-25T07:54:56.382Z,13.70
2022-09-25T08:04:58.067Z,13.80
2022-09-25T08:14:59.950Z,14.00
2022-09-25T08:25:05.843Z,14.00
2022-09-25T08:35:08.129Z,14.00
2022-09-25T08:45:36.348Z,14.00
2022-09-25T08:56:01.189Z,14.10
2022-09-25T09:06:15.983Z,14.10
2022-09-25T09:16:46.840Z,14.10
2022-09-25T09:27:06.507Z,14.20
2022-09-25T09:37:22.105Z,14.10
2022-09-25T09:47:53.469Z,14.20
2022-09-25T09:57:57.170Z,14.20
2022-09-25T10:08:01.532Z,14.20
2022-09-25T10:18:05.244Z,14.20
2022-09-25T10:28:30.128Z,14.30
2022-09-25T10:38:37.249Z,14.40
2022-09-25T10:48:59.569Z,14.70
2022-09-25T10:59:03.885Z,15.00
2022-09-25T11:09:21.792Z,15.10
2022-09-25T11:19:41.024Z,15.10
2022-09-25T11:29:48.690Z,15.30
2022-09-25T11:40:41.248Z,15.50
2022-09-25T11:51:08.127Z,15.60
2022-09-25T12:01:32.917Z,15.50
2022-09-25T12:12:07.270Z,15.20
2022-09-25T12:22:13.068Z,15.00
2022-09-25T12:32:30.843Z,14.80
2022-09-25T12:42:57.709Z,14.60
2022-09-25T12:53:24.550Z,14.50
2022-09-25T13:03:51.948Z,14.40
2022-09-25T13:13:57.110Z,14.40
2022-09-25T13:24:02.008Z,14.50
2022-09-25T13:34:15.789Z,14.60
2022-09-25T13:44:45.373Z,14.40
2022-09-25T13:54:47.106Z,14.10
2022-09-25T14:04:50.342Z,14.10
2022-09-25T14:15:17.414Z,14.10
2022-09-25T14:25:46.753Z,14.10
2022-09-25T14:36:00.906Z,14.10
2022-09-25T14:46:22.579Z,14.00
2022-09-25T14:56:29.646Z,14.10
2022-09-25T15:06:34.930Z,14.30
2022-09-25T15:16:54.605Z,14.40
2022-09-25T15:27:05.589Z,14.30
2022-09-25T15:37:33.307Z,14.10
2022-09-25T15:47:59.768Z,14.10
2022-09-25T15:58:15.689Z,14.00
2022-09-25T16:08:38.264Z,14.00
2022-09-25T16:18:43.009Z,13.90
2022-09-25T16:28:59.909Z,13.80
2022-09-25T16:39:17.310Z,13.80
2022-09-25T16:49:23.207Z,13.70
2022-09-25T16:59:28.084Z,13.60
2022-09-25T17:09:32.881Z,13.60
2022-09-25T17:19:34.364Z,13.50
2022-09-25T17:29:38.309Z,13.50
2022-09-25T17:39:40.264Z,13.40
2022-09-25T17:49:41.585Z,13.30
2022-09-25T17:59:42.947Z,13.20
2022-09-25T18:09:44.507Z,13.20
2022-09-25T18:20:04.409Z,13.20
2022-09-25T18:30:05.786Z,13.20
2022-09-25T18:40:08.129Z,13.20
2022-09-25T18:50:10.548Z,13.00
2022-09-25T19:00:12.489Z,13.00
2022-09-25T19:10:14.707Z,13.00
2022-09-25T19:20:16.126Z,12.90
2022-09-25T19:30:17.983Z,12.80
2022-09-25T19:40:40.038Z,12.80
2022-09-25T19:50:44.425Z,12.70
2022-09-25T20:00:46.028Z,12.70
2022-09-25T20:10:48.026Z,12.60
2022-09-25T20:20:53.970Z,12.70
2022-09-25T20:30:55.828Z,12.60
